Lagrange, Maine
Current Conditions -  °F | °C
As of 5:53 PM on Monday 20 Oct 2014 (Local Time) from KBGR Reporting Station
Few Clouds Few Clouds  
Wind Chill: 43°   Ceiling: Unl
Heat Index: 43°   Visibility: 10mi
Dew Point: 28°   Wind: 0mph
Humidity: 56%   Direction: NA
Pressure: 29.92"   Gusts: NA
Location:  45.17°N, 68.84°W
Report Text: KBGR 202153Z 00000KT 10SM FEW120 FEW200 06/M02 A2992 RMK AO2 SLP133 T00611022
Loading
Personal Weather Stations






























Interactive Weather Map
Tropical Storm Tracking
New forecast layout! Learn more

10-Day Weather Forecast

Advertisements
Track Severe Weather on mobile